首页
METAR-TAF:

METAR-TAF

机场 :

O'Neill Municipal Airport (John L. Baker Field)

O'Neill, 內布拉斯加州, 美国

纬度: 42-28N, 经度: 098-41W, 海拔: 619米

当前天气观测

该预报发布于28分钟前的06:35 UTC
风速4节,风向西
温度 3°C
湿度 81%
气压 1010 hPa
能見度: 16.1公里
天空无云

METAR: KONL 190635Z AUTO 26004KT 10SM CLR 03/00 A2983 RMK AO2 T00270002

时间: 01:03 (07:03 UTC)


TAF: 丢失

超过4000个机场的气象观测和天气预报(METAR&TAF报告)。

可查询的气象台以黄色和红色小点在地图上表示。

将鼠标移到小点上方,可查看气象台名称。

然后点击查看天气观测和预报。

如需切换地图:点击带黑十字的绿色按钮放大地图;点击带横线的绿色按钮缩小地图;或者点击绿色箭头查看邻近地区的地图。


METAR-TAF: